createdAt,value
2018-08-09T00:01:05.362Z,3.30
2018-08-09T00:03:34.034Z,4.00
2018-08-09T00:06:02.679Z,3.37
2018-08-09T00:08:31.417Z,3.70
2018-08-09T00:11:00.151Z,3.60
2018-08-09T00:13:28.802Z,3.60
2018-08-09T00:15:57.504Z,3.87
2018-08-09T00:18:26.219Z,3.60
2018-08-09T00:20:54.920Z,3.33
2018-08-09T00:23:23.600Z,3.80
2018-08-09T00:25:52.653Z,3.83
2018-08-09T00:28:21.381Z,3.90
2018-08-09T00:30:50.102Z,3.43
2018-08-09T00:33:18.779Z,4.00
2018-08-09T00:35:47.385Z,3.50
2018-08-09T00:38:16.081Z,3.30
2018-08-09T00:40:44.759Z,4.10
2018-08-09T00:43:13.402Z,3.67
2018-08-09T00:45:42.024Z,4.13
2018-08-09T00:48:10.722Z,3.90
2018-08-09T00:50:39.397Z,3.60
2018-08-09T00:53:08.034Z,3.73
2018-08-09T00:55:36.711Z,3.90
2018-08-09T00:58:05.498Z,3.80
2018-08-09T01:00:34.221Z,4.20
2018-08-09T01:03:02.862Z,4.50
2018-08-09T01:05:31.490Z,4.67
2018-08-09T01:08:00.162Z,4.43
2018-08-09T01:10:29.252Z,4.20
2018-08-09T01:12:57.947Z,3.70
2018-08-09T01:15:26.802Z,4.10
2018-08-09T01:17:55.484Z,4.20
2018-08-09T01:20:24.184Z,4.23
2018-08-09T01:22:52.816Z,3.90
2018-08-09T01:25:21.681Z,4.63
2018-08-09T01:27:50.361Z,4.70
2018-08-09T01:30:19.109Z,4.90
2018-08-09T01:32:47.796Z,4.40
2018-08-09T01:35:16.485Z,4.50
2018-08-09T01:37:45.119Z,4.60
2018-08-09T01:40:13.759Z,4.50
2018-08-09T01:42:53.706Z,4.70
2018-08-09T01:45:22.378Z,4.37
2018-08-09T01:47:51.362Z,4.77
2018-08-09T01:50:20.047Z,4.97
2018-08-09T01:52:48.696Z,4.60
2018-08-09T01:55:17.376Z,5.30
2018-08-09T01:57:46.009Z,4.83
2018-08-09T02:00:14.637Z,4.87
2018-08-09T02:02:43.358Z,5.10
2018-08-09T02:05:12.039Z,4.90
2018-08-09T02:07:40.723Z,4.30
2018-08-09T02:10:09.385Z,4.73
2018-08-09T02:12:38.091Z,5.83
2018-08-09T02:15:06.762Z,5.40
2018-08-09T02:17:35.424Z,5.50
2018-08-09T02:20:04.196Z,5.43
2018-08-09T02:22:32.898Z,6.60
2018-08-09T02:25:01.593Z,5.90
2018-08-09T02:27:30.252Z,6.20
2018-08-09T02:29:58.868Z,6.43
2018-08-09T02:32:27.683Z,6.10
2018-08-09T02:34:56.317Z,6.73
2018-08-09T02:37:25.005Z,6.63
2018-08-09T02:39:53.702Z,6.27
2018-08-09T02:42:22.397Z,5.80
2018-08-09T02:44:51.083Z,6.10
2018-08-09T02:47:19.762Z,6.30
2018-08-09T02:49:48.400Z,7.63
2018-08-09T02:52:17.077Z,6.23
2018-08-09T02:54:45.736Z,6.27
2018-08-09T02:57:14.412Z,6.03
2018-08-09T02:59:43.028Z,6.63
2018-08-09T03:02:11.765Z,5.33
2018-08-09T03:04:40.401Z,5.07
2018-08-09T03:07:09.414Z,5.10
2018-08-09T03:09:38.099Z,5.23
2018-08-09T03:12:06.760Z,5.57
2018-08-09T03:14:35.444Z,5.70
2018-08-09T03:17:04.126Z,5.57
2018-08-09T03:19:32.844Z,6.50
2018-08-09T03:22:01.506Z,6.80
2018-08-09T03:24:30.270Z,7.00
2018-08-09T03:26:58.866Z,6.13
2018-08-09T03:29:27.667Z,7.23
2018-08-09T03:31:56.358Z,6.93
2018-08-09T03:34:25.083Z,6.73
2018-08-09T03:36:53.747Z,7.07
2018-08-09T03:39:22.424Z,7.33
2018-08-09T03:41:51.161Z,7.03
2018-08-09T03:44:19.790Z,6.30
2018-08-09T03:46:48.485Z,6.93
2018-08-09T03:49:17.226Z,5.93
2018-08-09T03:51:45.868Z,6.03
2018-08-09T03:54:14.557Z,6.40
2018-08-09T03:56:43.225Z,6.73
2018-08-09T03:59:11.897Z,7.50
2018-08-09T04:01:40.553Z,8.40
2018-08-09T04:04:09.281Z,8.73
2018-08-09T04:06:37.958Z,7.73
2018-08-09T04:09:09.065Z,7.57
2018-08-09T04:11:37.717Z,6.80
2018-08-09T04:14:06.553Z,6.67
2018-08-09T04:16:35.281Z,6.40
2018-08-09T04:19:03.979Z,6.80
2018-08-09T04:21:32.657Z,6.83
2018-08-09T04:24:01.343Z,6.93
2018-08-09T04:26:30.486Z,6.63
2018-08-09T04:28:59.149Z,6.17
2018-08-09T04:31:27.907Z,6.63
2018-08-09T04:33:56.593Z,6.10
2018-08-09T04:36:25.280Z,6.90
2018-08-09T04:38:54.103Z,6.80
2018-08-09T04:41:22.785Z,6.77
2018-08-09T04:43:51.413Z,7.10
2018-08-09T04:46:20.066Z,7.40
2018-08-09T04:48:48.737Z,6.70
2018-08-09T04:51:17.569Z,7.03
2018-08-09T04:53:46.247Z,7.03
2018-08-09T04:56:14.897Z,7.17
2018-08-09T04:58:43.532Z,7.47
2018-08-09T05:01:12.236Z,6.93
2018-08-09T05:03:40.931Z,7.20
2018-08-09T05:06:09.576Z,6.90
2018-08-09T05:08:38.249Z,7.17
2018-08-09T05:11:07.022Z,7.53
2018-08-09T05:13:35.740Z,8.67
2018-08-09T05:16:04.463Z,8.80
2018-08-09T05:18:33.167Z,9.27
2018-08-09T05:21:01.908Z,9.60
2018-08-09T05:23:30.672Z,9.83
2018-08-09T05:25:59.339Z,9.73
2018-08-09T05:28:28.045Z,9.63
2018-08-09T05:30:56.709Z,11.33
2018-08-09T05:33:25.380Z,10.87
2018-08-09T05:35:54.070Z,12.53
2018-08-09T05:38:22.712Z,11.57
2018-08-09T05:40:51.389Z,11.43
2018-08-09T05:43:20.062Z,10.73
2018-08-09T05:45:48.716Z,11.43
2018-08-09T05:48:17.506Z,10.23
2018-08-09T05:50:46.297Z,9.70
2018-08-09T05:53:15.048Z,10.17
2018-08-09T05:55:43.688Z,13.67
2018-08-09T05:58:12.324Z,11.83
2018-08-09T06:00:41.033Z,12.17
2018-08-09T06:03:09.701Z,13.00
2018-08-09T06:05:38.424Z,12.80
2018-08-09T06:08:07.165Z,12.57
2018-08-09T06:10:35.829Z,13.20
2018-08-09T06:13:04.557Z,13.07
2018-08-09T06:15:33.588Z,12.83
2018-08-09T06:18:02.484Z,13.00
2018-08-09T06:20:31.400Z,12.40
2018-08-09T06:23:00.328Z,13.10
2018-08-09T06:25:29.096Z,12.47
2018-08-09T06:27:58.137Z,11.93
2018-08-09T06:30:27.297Z,12.67
2018-08-09T06:32:56.432Z,12.40
2018-08-09T06:35:25.402Z,12.30
2018-08-09T06:37:54.368Z,13.23
2018-08-09T06:40:23.062Z,12.40
2018-08-09T06:42:51.792Z,12.97
2018-08-09T06:45:20.479Z,12.63
2018-08-09T06:47:49.174Z,12.97
2018-08-09T06:50:17.882Z,12.90
2018-08-09T06:52:46.565Z,12.93
2018-08-09T06:55:15.338Z,12.37
2018-08-09T06:57:44.010Z,11.33
2018-08-09T07:00:13.486Z,11.73
2018-08-09T07:02:42.558Z,12.50
2018-08-09T07:05:11.239Z,11.43
2018-08-09T07:07:40.736Z,11.73
2018-08-09T07:10:10.132Z,11.43
2018-08-09T07:12:38.872Z,11.17
2018-08-09T07:15:10.672Z,11.80
2018-08-09T07:17:39.785Z,11.37
2018-08-09T07:20:09.616Z,10.37
2018-08-09T07:22:45.112Z,11.03
2018-08-09T07:25:13.809Z,10.30
2018-08-09T07:27:42.517Z,10.60
2018-08-09T07:30:12.890Z,9.87
2018-08-09T07:32:41.648Z,10.53
2018-08-09T07:35:11.189Z,10.93
2018-08-09T07:37:39.979Z,10.07
2018-08-09T07:40:10.601Z,9.97
2018-08-09T07:42:39.649Z,9.40
2018-08-09T07:45:10.457Z,9.03
2018-08-09T07:47:39.209Z,9.83
2018-08-09T07:50:08.446Z,9.20
2018-08-09T07:52:37.204Z,8.80
2018-08-09T07:55:06.853Z,8.80
2018-08-09T07:57:35.449Z,8.07
2018-08-09T08:00:04.492Z,8.40
2018-08-09T08:02:33.132Z,8.47
2018-08-09T08:05:01.782Z,7.47
2018-08-09T08:07:30.519Z,9.03
2018-08-09T08:09:59.119Z,8.30
2018-08-09T08:12:28.012Z,7.47
2018-08-09T08:14:56.704Z,6.70
2018-08-09T08:17:25.347Z,7.10
2018-08-09T08:19:54.019Z,6.57
2018-08-09T08:22:22.673Z,7.00
2018-08-09T08:24:51.328Z,7.73
2018-08-09T08:27:19.985Z,7.67
2018-08-09T08:29:48.634Z,8.00
2018-08-09T08:32:24.060Z,8.00
2018-08-09T08:34:52.693Z,8.80
2018-08-09T08:37:21.334Z,8.67
2018-08-09T08:39:50.003Z,9.30
2018-08-09T08:42:18.622Z,9.10
2018-08-09T08:44:47.274Z,10.33
2018-08-09T08:47:15.977Z,10.73
2018-08-09T08:49:44.634Z,9.17
2018-08-09T08:52:13.272Z,10.27
2018-08-09T08:54:41.888Z,9.03
2018-08-09T08:57:10.557Z,9.37
2018-08-09T08:59:39.253Z,10.33
2018-08-09T09:02:07.919Z,11.73
2018-08-09T09:04:36.614Z,11.50
2018-08-09T09:07:05.251Z,13.13
2018-08-09T09:09:33.923Z,12.17
2018-08-09T09:12:02.633Z,12.40
2018-08-09T09:14:31.244Z,12.63
2018-08-09T09:16:59.945Z,13.47
2018-08-09T09:19:29.551Z,13.67
2018-08-09T09:21:58.267Z,13.07
2018-08-09T09:24:27.012Z,14.43
2018-08-09T09:26:55.673Z,13.80
2018-08-09T09:29:24.361Z,13.97
2018-08-09T09:31:53.037Z,13.30
2018-08-09T09:34:22.510Z,12.17
2018-08-09T09:36:51.235Z,12.83
2018-08-09T09:39:19.897Z,13.10
2018-08-09T09:41:48.559Z,11.87
2018-08-09T09:44:17.278Z,12.03
2018-08-09T09:46:46.021Z,11.83
2018-08-09T09:49:14.715Z,11.60
2018-08-09T09:51:43.399Z,10.93
2018-08-09T09:54:12.043Z,11.70
2018-08-09T09:56:40.742Z,12.40
2018-08-09T09:59:09.388Z,12.00
2018-08-09T10:01:38.118Z,10.47
2018-08-09T10:04:07.196Z,10.87
2018-08-09T10:06:36.085Z,10.63
2018-08-09T10:09:08.313Z,10.20
2018-08-09T10:11:37.047Z,12.50
2018-08-09T10:14:06.120Z,12.17
2018-08-09T10:16:34.823Z,10.83
2018-08-09T10:19:03.566Z,12.93
2018-08-09T10:21:32.235Z,9.47
2018-08-09T10:24:00.932Z,8.43
2018-08-09T10:26:29.594Z,8.60
2018-08-09T10:28:58.287Z,9.47
2018-08-09T10:31:27.000Z,9.20
2018-08-09T10:33:55.690Z,9.57
2018-08-09T10:36:24.412Z,8.40
2018-08-09T10:38:53.077Z,9.37
2018-08-09T10:41:21.876Z,7.87
2018-08-09T10:43:50.567Z,10.00
2018-08-09T10:46:19.246Z,9.13
2018-08-09T10:48:48.555Z,8.40
2018-08-09T10:51:17.268Z,8.30
2018-08-09T10:53:46.020Z,8.70
2018-08-09T10:56:14.697Z,9.07
2018-08-09T10:58:43.351Z,8.90
2018-08-09T11:01:11.990Z,8.73
2018-08-09T11:03:40.657Z,8.77
2018-08-09T11:06:09.292Z,7.67
2018-08-09T11:08:38.002Z,8.60
2018-08-09T11:11:11.719Z,7.30
2018-08-09T11:13:42.215Z,9.17
2018-08-09T11:16:11.431Z,8.30
2018-08-09T11:18:40.159Z,8.47
2018-08-09T11:21:08.801Z,8.80
2018-08-09T11:23:37.514Z,9.73
2018-08-09T11:26:06.265Z,10.33
2018-08-09T11:28:34.977Z,8.63
2018-08-09T11:31:03.675Z,8.60
2018-08-09T11:33:33.331Z,8.40
2018-08-09T11:36:02.219Z,8.43
2018-08-09T11:38:30.878Z,8.90
2018-08-09T11:41:00.335Z,9.63
2018-08-09T11:43:29.099Z,9.07
2018-08-09T11:45:57.818Z,10.47
2018-08-09T11:48:26.670Z,9.07
2018-08-09T11:50:55.417Z,8.83
2018-08-09T11:53:24.083Z,9.17
2018-08-09T11:55:52.916Z,9.80
2018-08-09T11:58:21.964Z,9.23
2018-08-09T12:00:50.805Z,9.13
2018-08-09T12:03:19.886Z,9.70
2018-08-09T12:05:48.750Z,9.17
2018-08-09T12:08:17.406Z,9.30
2018-08-09T12:10:46.249Z,9.30
2018-08-09T12:13:15.180Z,8.93
2018-08-09T12:15:49.893Z,9.07
2018-08-09T12:18:18.750Z,9.10
2018-08-09T12:20:47.750Z,9.13
2018-08-09T12:23:16.384Z,9.27
2018-08-09T12:25:45.316Z,9.43
2018-08-09T12:28:14.129Z,10.40
2018-08-09T12:30:42.879Z,11.37
2018-08-09T12:33:12.588Z,10.57
2018-08-09T12:35:41.374Z,10.03
2018-08-09T12:38:10.090Z,10.77
2018-08-09T12:40:38.851Z,10.30
2018-08-09T12:43:07.797Z,10.10
2018-08-09T12:45:36.522Z,10.07
2018-08-09T12:48:05.748Z,10.47
2018-08-09T12:50:34.763Z,10.50
2018-08-09T12:53:03.645Z,10.57
2018-08-09T12:55:32.683Z,10.23
2018-08-09T12:58:01.534Z,11.57
2018-08-09T13:00:30.232Z,12.10
2018-08-09T13:02:58.919Z,12.20
2018-08-09T13:05:28.110Z,11.37
2018-08-09T13:07:56.863Z,10.93
2018-08-09T13:10:25.686Z,10.57
2018-08-09T13:12:55.499Z,9.93
2018-08-09T13:15:24.576Z,11.80
2018-08-09T13:17:53.329Z,11.23
2018-08-09T13:20:22.096Z,10.27
2018-08-09T13:22:51.671Z,12.83
2018-08-09T13:25:20.531Z,11.70
2018-08-09T13:27:49.420Z,10.97
2018-08-09T13:30:18.143Z,10.80
2018-08-09T13:32:46.835Z,11.20
2018-08-09T13:35:15.573Z,10.50
2018-08-09T13:37:44.264Z,11.47
2018-08-09T13:40:12.994Z,10.60
2018-08-09T13:42:41.981Z,10.87
2018-08-09T13:45:13.301Z,10.47
2018-08-09T13:47:42.285Z,10.57
2018-08-09T13:50:11.852Z,13.97
2018-08-09T13:52:41.241Z,13.47
2018-08-09T13:55:11.596Z,16.30
2018-08-09T13:57:40.312Z,8.20
2018-08-09T14:00:10.983Z,11.30
2018-08-09T14:02:40.322Z,9.93
2018-08-09T14:05:10.055Z,9.00
2018-08-09T14:07:41.641Z,9.87
2018-08-09T14:10:11.559Z,9.97
2018-08-09T14:12:40.938Z,9.47
2018-08-09T14:15:10.835Z,9.30
2018-08-09T14:17:39.936Z,7.43
2018-08-09T14:20:11.292Z,7.20
2018-08-09T14:22:39.981Z,6.90
2018-08-09T14:25:08.756Z,6.87
2018-08-09T14:27:43.894Z,6.27
2018-08-09T14:30:14.933Z,7.40
2018-08-09T14:32:44.521Z,6.87
2018-08-09T14:35:17.949Z,7.30
2018-08-09T14:37:47.250Z,6.57
2018-08-09T14:40:16.649Z,6.80
2018-08-09T14:42:45.309Z,6.97
2018-08-09T14:45:16.405Z,6.70
2018-08-09T14:47:45.141Z,5.90
2018-08-09T14:50:13.871Z,5.97
2018-08-09T14:52:42.810Z,6.90
2018-08-09T14:55:12.797Z,5.57
2018-08-09T14:57:41.780Z,5.50
2018-08-09T15:00:14.043Z,5.77
2018-08-09T15:02:43.136Z,6.03
2018-08-09T15:05:11.898Z,5.53
2018-08-09T15:07:40.922Z,5.70
2018-08-09T15:10:09.670Z,5.50
2018-08-09T15:12:38.358Z,5.37
2018-08-09T15:15:08.827Z,5.00
2018-08-09T15:17:37.593Z,5.40
2018-08-09T15:20:08.314Z,5.17
2018-08-09T15:22:37.247Z,4.53
2018-08-09T15:25:06.974Z,5.80
2018-08-09T15:27:35.698Z,4.70
2018-08-09T15:30:05.552Z,5.17
2018-08-09T15:32:34.205Z,5.37
2018-08-09T15:35:02.899Z,5.37
2018-08-09T15:37:31.518Z,4.70
2018-08-09T15:40:00.239Z,5.03
2018-08-09T15:42:29.045Z,4.50
2018-08-09T15:44:57.704Z,4.03
2018-08-09T15:47:26.731Z,4.30
2018-08-09T15:49:55.306Z,5.30
2018-08-09T15:52:24.045Z,4.97
2018-08-09T15:54:52.854Z,4.93
2018-08-09T15:57:21.559Z,4.57
2018-08-09T15:59:50.309Z,4.60
2018-08-09T16:02:19.182Z,4.77
2018-08-09T16:04:47.868Z,4.50
2018-08-09T16:07:16.546Z,4.50
2018-08-09T16:09:45.249Z,4.33
2018-08-09T16:12:13.980Z,4.50
2018-08-09T16:14:42.726Z,4.83
2018-08-09T16:17:11.495Z,4.43
2018-08-09T16:19:40.155Z,4.03
2018-08-09T16:22:08.873Z,4.80
2018-08-09T16:24:37.529Z,4.17
2018-08-09T16:27:06.575Z,4.30
2018-08-09T16:29:35.437Z,4.00
2018-08-09T16:32:04.212Z,4.03
2018-08-09T16:34:32.860Z,3.93
2018-08-09T16:37:01.601Z,4.07
2018-08-09T16:39:30.373Z,4.20
2018-08-09T16:41:59.053Z,3.90
2018-08-09T16:44:27.868Z,4.30
2018-08-09T16:46:56.619Z,3.90
2018-08-09T16:49:25.434Z,4.47
2018-08-09T16:51:54.165Z,4.27
2018-08-09T16:54:22.872Z,4.07
2018-08-09T16:56:51.553Z,3.93
2018-08-09T16:59:20.269Z,4.10
2018-08-09T17:01:49.010Z,4.43
2018-08-09T17:04:17.683Z,4.10
2018-08-09T17:06:46.423Z,4.03
2018-08-09T17:09:15.317Z,4.10
2018-08-09T17:11:45.154Z,3.77
2018-08-09T17:14:15.391Z,3.77
2018-08-09T17:16:44.652Z,3.67
2018-08-09T17:19:13.437Z,3.80
2018-08-09T17:21:42.264Z,3.80
2018-08-09T17:24:11.607Z,3.10
2018-08-09T17:26:40.825Z,3.83
2018-08-09T17:29:10.221Z,3.93
2018-08-09T17:31:38.990Z,3.30
2018-08-09T17:34:07.823Z,3.60
2018-08-09T17:36:36.509Z,3.43
2018-08-09T17:39:09.350Z,3.13
2018-08-09T17:41:38.257Z,3.17
2018-08-09T17:44:08.169Z,3.50
2018-08-09T17:46:36.906Z,3.10
2018-08-09T17:49:05.732Z,3.43
2018-08-09T17:51:34.668Z,3.17
2018-08-09T17:54:03.395Z,3.40
2018-08-09T17:56:32.155Z,3.47
2018-08-09T17:59:00.855Z,3.20
2018-08-09T18:01:29.628Z,3.60
2018-08-09T18:03:58.323Z,3.47
2018-08-09T18:06:27.157Z,2.83
2018-08-09T18:08:55.885Z,3.27
2018-08-09T18:11:24.562Z,3.33
2018-08-09T18:13:53.317Z,3.17
2018-08-09T18:16:22.085Z,3.20
2018-08-09T18:18:50.777Z,3.17
2018-08-09T18:21:19.577Z,3.30
2018-08-09T18:23:48.283Z,3.10
2018-08-09T18:26:17.001Z,3.43
2018-08-09T18:28:45.701Z,2.93
2018-08-09T18:31:14.419Z,3.20
2018-08-09T18:33:43.153Z,4.70
2018-08-09T18:36:11.821Z,4.00
2018-08-09T18:38:40.488Z,2.97
2018-08-09T18:41:09.231Z,2.80
2018-08-09T18:43:38.492Z,2.93
2018-08-09T18:46:07.418Z,2.93
2018-08-09T18:48:36.132Z,2.83
2018-08-09T18:51:04.856Z,3.10
2018-08-09T18:53:33.540Z,3.33
2018-08-09T18:56:02.304Z,3.53
2018-08-09T18:58:30.968Z,3.13
2018-08-09T19:00:59.667Z,3.30
2018-08-09T19:03:28.341Z,3.60
2018-08-09T19:05:57.092Z,3.40
2018-08-09T19:08:25.809Z,3.70
2018-08-09T19:10:54.568Z,3.60
2018-08-09T19:13:23.276Z,3.40
2018-08-09T19:15:52.022Z,3.70
2018-08-09T19:18:20.709Z,3.63
2018-08-09T19:20:49.402Z,3.77
2018-08-09T19:23:18.722Z,3.43
2018-08-09T19:25:47.462Z,3.70
2018-08-09T19:28:16.220Z,4.00
2018-08-09T19:30:44.954Z,4.33
2018-08-09T19:33:13.717Z,4.40
2018-08-09T19:35:42.412Z,4.30
2018-08-09T19:38:11.164Z,4.00
2018-08-09T19:40:39.875Z,4.47
2018-08-09T19:43:08.612Z,4.57
2018-08-09T19:45:37.442Z,4.10
2018-08-09T19:48:06.562Z,3.97
2018-08-09T19:50:35.656Z,4.00
2018-08-09T19:53:04.521Z,4.30
2018-08-09T19:55:33.227Z,3.70
2018-08-09T19:58:02.034Z,3.33
2018-08-09T20:00:31.344Z,3.20
2018-08-09T20:03:00.023Z,3.03
2018-08-09T20:05:28.809Z,3.20
2018-08-09T20:07:58.065Z,3.00
2018-08-09T20:10:26.917Z,3.13
2018-08-09T20:12:55.629Z,3.07
2018-08-09T20:15:24.923Z,2.80
2018-08-09T20:17:53.581Z,2.90
2018-08-09T20:20:23.840Z,2.83
2018-08-09T20:22:53.641Z,2.73
2018-08-09T20:25:22.337Z,2.70
2018-08-09T20:27:51.005Z,2.57
2018-08-09T20:30:20.077Z,2.47
2018-08-09T20:32:49.232Z,2.40
2018-08-09T20:35:22.357Z,2.40
2018-08-09T20:37:51.551Z,2.53
2018-08-09T20:40:21.433Z,2.67
2018-08-09T20:42:51.265Z,2.73
2018-08-09T20:45:21.232Z,2.77
2018-08-09T20:47:49.999Z,2.70
2018-08-09T20:50:26.993Z,2.83
2018-08-09T20:52:56.038Z,2.50
2018-08-09T20:55:24.817Z,2.87
2018-08-09T20:57:54.505Z,2.60
2018-08-09T21:00:30.067Z,2.60
2018-08-09T21:02:59.705Z,2.20
2018-08-09T21:05:37.226Z,2.40
2018-08-09T21:08:06.288Z,2.90
2018-08-09T21:10:35.061Z,3.27
2018-08-09T21:13:03.768Z,2.27
2018-08-09T21:15:32.565Z,2.13
2018-08-09T21:18:01.189Z,2.17
2018-08-09T21:20:29.953Z,1.57
2018-08-09T21:22:58.711Z,1.53
2018-08-09T21:25:27.491Z,1.67
2018-08-09T21:27:56.217Z,1.87
2018-08-09T21:30:24.955Z,1.67
2018-08-09T21:32:53.642Z,2.00
2018-08-09T21:35:22.370Z,1.73
2018-08-09T21:37:51.097Z,1.87
2018-08-09T21:40:19.753Z,2.30
2018-08-09T21:42:48.448Z,1.87
2018-08-09T21:45:19.178Z,2.10
2018-08-09T21:47:47.941Z,2.20
2018-08-09T21:50:19.151Z,2.20
2018-08-09T21:52:47.901Z,2.00
2018-08-09T21:55:16.581Z,1.73
2018-08-09T21:57:46.115Z,1.50
2018-08-09T22:00:22.973Z,1.50
2018-08-09T22:02:51.705Z,1.60
2018-08-09T22:05:25.715Z,1.50
2018-08-09T22:09:01.417Z,1.40
2018-08-09T22:11:35.397Z,1.30
2018-08-09T22:14:09.406Z,1.50
2018-08-09T22:16:43.344Z,1.60
2018-08-09T22:19:17.268Z,2.03
2018-08-09T22:21:51.211Z,1.80
2018-08-09T22:24:19.937Z,1.63
2018-08-09T22:26:48.643Z,1.53
2018-08-09T22:29:17.297Z,1.77
2018-08-09T22:31:46.034Z,1.90
2018-08-09T22:34:14.709Z,1.80
2018-08-09T22:36:43.338Z,1.77
2018-08-09T22:39:12.045Z,1.83
2018-08-09T22:41:40.664Z,1.53
2018-08-09T22:44:09.378Z,1.73
2018-08-09T22:46:38.053Z,2.00
2018-08-09T22:49:06.829Z,1.70
2018-08-09T22:51:35.570Z,1.87
2018-08-09T22:54:04.330Z,1.60
2018-08-09T22:56:32.998Z,1.90
2018-08-09T22:59:01.816Z,2.10
2018-08-09T23:01:30.516Z,1.90
2018-08-09T23:03:59.220Z,2.20
2018-08-09T23:06:30.598Z,2.00
2018-08-09T23:08:59.308Z,1.87
2018-08-09T23:11:28.093Z,2.10
2018-08-09T23:13:56.782Z,1.90
2018-08-09T23:16:25.499Z,1.97
2018-08-09T23:18:54.220Z,2.13
2018-08-09T23:21:22.882Z,2.23
2018-08-09T23:23:51.564Z,3.87
2018-08-09T23:26:20.329Z,5.57
2018-08-09T23:28:49.074Z,6.07
2018-08-09T23:31:17.759Z,6.00
2018-08-09T23:33:46.441Z,6.47
2018-08-09T23:36:15.167Z,6.13
2018-08-09T23:38:43.845Z,5.40
2018-08-09T23:41:12.518Z,4.73
2018-08-09T23:43:41.285Z,3.77
2018-08-09T23:46:10.027Z,3.60
2018-08-09T23:48:38.711Z,2.47
2018-08-09T23:51:10.360Z,2.10
2018-08-09T23:53:39.055Z,1.47
2018-08-09T23:56:08.345Z,1.70
2018-08-09T23:58:37.057Z,1.27
